sensor_id;sensor_type;location;lat;lon;timestamp;temperature;humidity
7016;DHT22;3548;48.402;9.990;2023-04-24T00:00:32;10.60;99.90
7016;DHT22;3548;48.402;9.990;2023-04-24T00:02:58;10.60;99.90
7016;DHT22;3548;48.402;9.990;2023-04-24T00:05:24;10.60;99.90
7016;DHT22;3548;48.402;9.990;2023-04-24T00:07:50;10.60;99.90
7016;DHT22;3548;48.402;9.990;2023-04-24T00:10:18;10.60;99.90
7016;DHT22;3548;48.402;9.990;2023-04-24T00:12:44;10.50;99.90
7016;DHT22;3548;48.402;9.990;2023-04-24T00:15:10;10.50;99.90
7016;DHT22;3548;48.402;9.990;2023-04-24T00:17:36;10.50;99.90
7016;DHT22;3548;48.402;9.990;2023-04-24T00:20:02;10.50;99.90
7016;DHT22;3548;48.402;9.990;2023-04-24T00:22:31;10.50;99.90
7016;DHT22;3548;48.402;9.990;2023-04-24T00:24:57;10.50;99.90
7016;DHT22;3548;48.402;9.990;2023-04-24T00:27:23;10.60;99.90
7016;DHT22;3548;48.402;9.990;2023-04-24T00:29:49;10.50;99.90
7016;DHT22;3548;48.402;9.990;2023-04-24T00:32:15;10.50;99.90
7016;DHT22;3548;48.402;9.990;2023-04-24T00:34:40;10.50;99.90
7016;DHT22;3548;48.402;9.990;2023-04-24T00:37:06;10.50;99.90
7016;DHT22;3548;48.402;9.990;2023-04-24T00:39:32;10.40;99.90
7016;DHT22;3548;48.402;9.990;2023-04-24T00:41:58;10.40;99.90
7016;DHT22;3548;48.402;9.990;2023-04-24T00:44:24;10.40;99.90
7016;DHT22;3548;48.402;9.990;2023-04-24T00:46:50;10.40;99.90
7016;DHT22;3548;48.402;9.990;2023-04-24T00:49:23;10.40;99.90
7016;DHT22;3548;48.402;9.990;2023-04-24T00:51:49;10.40;99.90
7016;DHT22;3548;48.402;9.990;2023-04-24T00:54:17;10.40;99.90
7016;DHT22;3548;48.402;9.990;2023-04-24T00:56:44;10.40;99.90
7016;DHT22;3548;48.402;9.990;2023-04-24T00:59:10;10.40;99.90
7016;DHT22;3548;48.402;9.990;2023-04-24T01:01:36;10.40;99.90
7016;DHT22;3548;48.402;9.990;2023-04-24T01:04:02;10.40;99.90
7016;DHT22;3548;48.402;9.990;2023-04-24T01:06:28;10.40;99.90
7016;DHT22;3548;48.402;9.990;2023-04-24T01:08:57;10.50;99.90
7016;DHT22;3548;48.402;9.990;2023-04-24T01:11:23;10.50;99.90
7016;DHT22;3548;48.402;9.990;2023-04-24T01:13:48;10.50;99.90
7016;DHT22;3548;48.402;9.990;2023-04-24T01:16:15;10.50;99.90
7016;DHT22;3548;48.402;9.990;2023-04-24T01:18:43;10.50;99.90
7016;DHT22;3548;48.402;9.990;2023-04-24T01:21:09;10.50;99.90
7016;DHT22;3548;48.402;9.990;2023-04-24T01:23:35;10.40;99.90
7016;DHT22;3548;48.402;9.990;2023-04-24T01:26:01;10.40;99.90
7016;DHT22;3548;48.402;9.990;2023-04-24T01:28:26;10.50;99.90
7016;DHT22;3548;48.402;9.990;2023-04-24T01:30:52;10.40;99.90
7016;DHT22;3548;48.402;9.990;2023-04-24T01:33:21;10.40;99.90
7016;DHT22;3548;48.402;9.990;2023-04-24T01:35:46;10.40;99.90
7016;DHT22;3548;48.402;9.990;2023-04-24T01:38:12;10.40;99.90
7016;DHT22;3548;48.402;9.990;2023-04-24T01:40:38;10.40;99.90
7016;DHT22;3548;48.402;9.990;2023-04-24T01:43:03;10.40;99.90
7016;DHT22;3548;48.402;9.990;2023-04-24T01:45:29;10.40;99.90
7016;DHT22;3548;48.402;9.990;2023-04-24T01:47:55;10.40;99.90
7016;DHT22;3548;48.402;9.990;2023-04-24T01:50:21;10.40;99.90
7016;DHT22;3548;48.402;9.990;2023-04-24T01:52:47;10.40;99.90
7016;DHT22;3548;48.402;9.990;2023-04-24T01:55:12;10.40;99.90
7016;DHT22;3548;48.402;9.990;2023-04-24T01:57:38;10.40;99.90
7016;DHT22;3548;48.402;9.990;2023-04-24T02:00:05;10.40;99.90
7016;DHT22;3548;48.402;9.990;2023-04-24T02:02:32;10.30;99.90
7016;DHT22;3548;48.402;9.990;2023-04-24T02:04:58;10.30;99.90
7016;DHT22;3548;48.402;9.990;2023-04-24T02:07:23;10.30;99.90
7016;DHT22;3548;48.402;9.990;2023-04-24T02:09:49;10.30;99.90
7016;DHT22;3548;48.402;9.990;2023-04-24T02:12:15;10.40;99.90
7016;DHT22;3548;48.402;9.990;2023-04-24T02:14:41;10.30;99.90
7016;DHT22;3548;48.402;9.990;2023-04-24T02:17:07;10.30;99.90
7016;DHT22;3548;48.402;9.990;2023-04-24T02:19:33;10.30;99.90
7016;DHT22;3548;48.402;9.990;2023-04-24T02:21:58;10.30;99.90
7016;DHT22;3548;48.402;9.990;2023-04-24T02:24:24;10.30;99.90
7016;DHT22;3548;48.402;9.990;2023-04-24T02:26:49;10.30;99.90
7016;DHT22;3548;48.402;9.990;2023-04-24T02:29:15;10.30;99.90
7016;DHT22;3548;48.402;9.990;2023-04-24T02:31:41;10.30;99.90
7016;DHT22;3548;48.402;9.990;2023-04-24T02:34:07;10.30;99.90
7016;DHT22;3548;48.402;9.990;2023-04-24T02:36:33;10.30;99.90
7016;DHT22;3548;48.402;9.990;2023-04-24T02:38:58;10.20;99.90
7016;DHT22;3548;48.402;9.990;2023-04-24T02:41:24;10.20;99.90
7016;DHT22;3548;48.402;9.990;2023-04-24T02:43:50;10.20;99.90
7016;DHT22;3548;48.402;9.990;2023-04-24T02:46:15;10.20;99.90
7016;DHT22;3548;48.402;9.990;2023-04-24T02:48:41;10.20;99.90
7016;DHT22;3548;48.402;9.990;2023-04-24T02:51:06;10.20;99.90
7016;DHT22;3548;48.402;9.990;2023-04-24T02:53:32;10.10;99.90
7016;DHT22;3548;48.402;9.990;2023-04-24T02:55:58;10.10;99.90
7016;DHT22;3548;48.402;9.990;2023-04-24T02:58:24;10.10;99.90
7016;DHT22;3548;48.402;9.990;2023-04-24T03:00:53;10.10;99.90
7016;DHT22;3548;48.402;9.990;2023-04-24T03:03:20;10.10;99.90
7016;DHT22;3548;48.402;9.990;2023-04-24T03:05:46;10.10;99.90
7016;DHT22;3548;48.402;9.990;2023-04-24T03:08:11;10.10;99.90
7016;DHT22;3548;48.402;9.990;2023-04-24T03:10:37;10.10;99.90
7016;DHT22;3548;48.402;9.990;2023-04-24T03:13:02;10.10;99.90
7016;DHT22;3548;48.402;9.990;2023-04-24T03:15:28;10.10;99.90
7016;DHT22;3548;48.402;9.990;2023-04-24T03:17:53;10.00;99.90
7016;DHT22;3548;48.402;9.990;2023-04-24T03:20:19;10.00;99.90
7016;DHT22;3548;48.402;9.990;2023-04-24T03:22:44;10.00;99.90
7016;DHT22;3548;48.402;9.990;2023-04-24T03:25:10;10.00;99.90
7016;DHT22;3548;48.402;9.990;2023-04-24T03:27:35;10.00;99.90
7016;DHT22;3548;48.402;9.990;2023-04-24T03:30:01;10.00;99.90
7016;DHT22;3548;48.402;9.990;2023-04-24T03:32:27;10.00;99.90
7016;DHT22;3548;48.402;9.990;2023-04-24T03:34:53;10.00;99.90
7016;DHT22;3548;48.402;9.990;2023-04-24T03:37:18;10.00;99.90
7016;DHT22;3548;48.402;9.990;2023-04-24T03:39:44;10.00;99.90
7016;DHT22;3548;48.402;9.990;2023-04-24T03:42:09;10.00;99.90
7016;DHT22;3548;48.402;9.990;2023-04-24T03:44:35;10.00;99.90
7016;DHT22;3548;48.402;9.990;2023-04-24T03:47:01;10.10;99.90
7016;DHT22;3548;48.402;9.990;2023-04-24T03:49:27;10.10;99.90
7016;DHT22;3548;48.402;9.990;2023-04-24T03:51:52;10.00;99.90
7016;DHT22;3548;48.402;9.990;2023-04-24T03:54:21;10.10;99.90
7016;DHT22;3548;48.402;9.990;2023-04-24T03:56:46;10.00;99.90
7016;DHT22;3548;48.402;9.990;2023-04-24T03:59:12;10.00;99.90
7016;DHT22;3548;48.402;9.990;2023-04-24T04:01:39;10.00;99.90
7016;DHT22;3548;48.402;9.990;2023-04-24T04:04:06;10.00;99.90
7016;DHT22;3548;48.402;9.990;2023-04-24T04:06:32;10.10;99.90
7016;DHT22;3548;48.402;9.990;2023-04-24T04:08:58;10.10;99.90
7016;DHT22;3548;48.402;9.990;2023-04-24T04:11:24;10.00;99.90
7016;DHT22;3548;48.402;9.990;2023-04-24T04:13:49;10.10;99.90
7016;DHT22;3548;48.402;9.990;2023-04-24T04:16:16;10.10;99.90
7016;DHT22;3548;48.402;9.990;2023-04-24T04:18:45;10.10;99.90
7016;DHT22;3548;48.402;9.990;2023-04-24T04:21:10;10.10;99.90
7016;DHT22;3548;48.402;9.990;2023-04-24T04:23:36;10.10;99.90
7016;DHT22;3548;48.402;9.990;2023-04-24T04:26:03;10.00;99.90
7016;DHT22;3548;48.402;9.990;2023-04-24T04:28:29;10.10;99.90
7016;DHT22;3548;48.402;9.990;2023-04-24T04:30:57;10.10;99.90
7016;DHT22;3548;48.402;9.990;2023-04-24T04:33:23;10.10;99.90
7016;DHT22;3548;48.402;9.990;2023-04-24T04:35:48;10.10;99.90
7016;DHT22;3548;48.402;9.990;2023-04-24T04:38:15;10.10;99.90
7016;DHT22;3548;48.402;9.990;2023-04-24T04:40:42;10.10;99.90
7016;DHT22;3548;48.402;9.990;2023-04-24T04:43:07;10.10;99.90
7016;DHT22;3548;48.402;9.990;2023-04-24T04:45:33;10.10;99.90
7016;DHT22;3548;48.402;9.990;2023-04-24T04:48:00;10.20;99.90
7016;DHT22;3548;48.402;9.990;2023-04-24T04:50:27;10.10;99.90
7016;DHT22;3548;48.402;9.990;2023-04-24T04:52:52;10.20;99.90
7016;DHT22;3548;48.402;9.990;2023-04-24T04:55:18;10.20;99.90
7016;DHT22;3548;48.402;9.990;2023-04-24T04:57:45;10.20;99.90
7016;DHT22;3548;48.402;9.990;2023-04-24T05:00:12;10.30;99.90
7016;DHT22;3548;48.402;9.990;2023-04-24T05:02:38;10.20;99.90
7016;DHT22;3548;48.402;9.990;2023-04-24T05:05:05;10.30;99.90
7016;DHT22;3548;48.402;9.990;2023-04-24T05:07:31;10.30;99.90
7016;DHT22;3548;48.402;9.990;2023-04-24T05:09:56;10.30;99.90
7016;DHT22;3548;48.402;9.990;2023-04-24T05:12:22;10.30;99.90
7016;DHT22;3548;48.402;9.990;2023-04-24T05:14:47;10.30;99.90
7016;DHT22;3548;48.402;9.990;2023-04-24T05:17:13;10.30;99.90
7016;DHT22;3548;48.402;9.990;2023-04-24T05:19:38;10.40;99.90
7016;DHT22;3548;48.402;9.990;2023-04-24T05:22:04;10.40;99.90
7016;DHT22;3548;48.402;9.990;2023-04-24T05:24:35;10.40;99.90
7016;DHT22;3548;48.402;9.990;2023-04-24T05:27:00;10.40;99.90
7016;DHT22;3548;48.402;9.990;2023-04-24T05:29:27;10.40;99.90
7016;DHT22;3548;48.402;9.990;2023-04-24T05:31:53;10.40;99.90
7016;DHT22;3548;48.402;9.990;2023-04-24T05:34:21;10.40;99.90
7016;DHT22;3548;48.402;9.990;2023-04-24T05:36:47;10.40;99.90
7016;DHT22;3548;48.402;9.990;2023-04-24T05:39:13;10.40;99.90
7016;DHT22;3548;48.402;9.990;2023-04-24T05:41:39;10.50;99.90
7016;DHT22;3548;48.402;9.990;2023-04-24T05:44:04;10.50;99.90
7016;DHT22;3548;48.402;9.990;2023-04-24T05:46:30;10.50;99.90
7016;DHT22;3548;48.402;9.990;2023-04-24T05:48:55;10.50;99.90
7016;DHT22;3548;48.402;9.990;2023-04-24T05:51:21;10.50;99.90
7016;DHT22;3548;48.402;9.990;2023-04-24T05:53:46;10.60;99.90
7016;DHT22;3548;48.402;9.990;2023-04-24T05:56:12;10.60;99.90
7016;DHT22;3548;48.402;9.990;2023-04-24T05:58:37;10.60;99.90
7016;DHT22;3548;48.402;9.990;2023-04-24T06:01:03;10.60;99.90
7016;DHT22;3548;48.402;9.990;2023-04-24T06:03:29;10.60;99.90
7016;DHT22;3548;48.402;9.990;2023-04-24T06:05:54;10.60;99.90
7016;DHT22;3548;48.402;9.990;2023-04-24T06:08:20;10.50;99.90
7016;DHT22;3548;48.402;9.990;2023-04-24T06:10:45;10.50;99.90
7016;DHT22;3548;48.402;9.990;2023-04-24T06:13:11;10.50;99.90
7016;DHT22;3548;48.402;9.990;2023-04-24T06:15:37;10.50;99.90
7016;DHT22;3548;48.402;9.990;2023-04-24T06:18:03;10.40;99.90
7016;DHT22;3548;48.402;9.990;2023-04-24T06:20:29;10.40;99.90
7016;DHT22;3548;48.402;9.990;2023-04-24T06:22:54;10.30;99.90
7016;DHT22;3548;48.402;9.990;2023-04-24T06:25:20;10.10;99.90
7016;DHT22;3548;48.402;9.990;2023-04-24T06:27:46;10.00;99.90
7016;DHT22;3548;48.402;9.990;2023-04-24T06:30:12;9.90;99.90
7016;DHT22;3548;48.402;9.990;2023-04-24T06:32:37;9.90;99.90
7016;DHT22;3548;48.402;9.990;2023-04-24T06:35:04;9.90;99.90
7016;DHT22;3548;48.402;9.990;2023-04-24T06:37:29;9.80;99.90
7016;DHT22;3548;48.402;9.990;2023-04-24T06:39:55;9.80;99.90
7016;DHT22;3548;48.402;9.990;2023-04-24T06:42:21;9.80;99.90
7016;DHT22;3548;48.402;9.990;2023-04-24T06:44:47;9.80;99.90
7016;DHT22;3548;48.402;9.990;2023-04-24T06:47:13;9.80;99.90
7016;DHT22;3548;48.402;9.990;2023-04-24T06:49:39;9.80;99.90
7016;DHT22;3548;48.402;9.990;2023-04-24T06:52:05;9.90;99.90
7016;DHT22;3548;48.402;9.990;2023-04-24T06:54:31;9.90;99.90
7016;DHT22;3548;48.402;9.990;2023-04-24T06:56:57;9.90;99.90
7016;DHT22;3548;48.402;9.990;2023-04-24T06:59:23;9.90;99.90
7016;DHT22;3548;48.402;9.990;2023-04-24T07:01:49;9.90;99.90
7016;DHT22;3548;48.402;9.990;2023-04-24T07:04:16;9.90;99.90
7016;DHT22;3548;48.402;9.990;2023-04-24T07:06:42;10.00;99.90
7016;DHT22;3548;48.402;9.990;2023-04-24T07:09:07;10.10;99.90
7016;DHT22;3548;48.402;9.990;2023-04-24T07:11:34;10.20;99.90
7016;DHT22;3548;48.402;9.990;2023-04-24T07:14:00;10.30;99.90
7016;DHT22;3548;48.402;9.990;2023-04-24T07:16:26;10.40;99.90
7016;DHT22;3548;48.402;9.990;2023-04-24T07:18:52;10.50;99.90
7016;DHT22;3548;48.402;9.990;2023-04-24T07:21:18;10.50;99.90
7016;DHT22;3548;48.402;9.990;2023-04-24T07:23:43;10.50;99.90
7016;DHT22;3548;48.402;9.990;2023-04-24T07:26:09;10.60;99.90
7016;DHT22;3548;48.402;9.990;2023-04-24T07:28:34;10.70;99.90
7016;DHT22;3548;48.402;9.990;2023-04-24T07:31:00;10.90;99.90
7016;DHT22;3548;48.402;9.990;2023-04-24T07:33:26;11.10;99.90
7016;DHT22;3548;48.402;9.990;2023-04-24T07:35:52;11.30;99.90
7016;DHT22;3548;48.402;9.990;2023-04-24T07:38:18;11.60;99.90
7016;DHT22;3548;48.402;9.990;2023-04-24T07:40:48;11.80;99.90
7016;DHT22;3548;48.402;9.990;2023-04-24T07:43:13;11.90;99.90
7016;DHT22;3548;48.402;9.990;2023-04-24T07:45:39;12.00;99.90
7016;DHT22;3548;48.402;9.990;2023-04-24T07:48:05;12.10;99.90
7016;DHT22;3548;48.402;9.990;2023-04-24T07:50:32;12.20;99.90
7016;DHT22;3548;48.402;9.990;2023-04-24T07:52:57;12.20;99.90
7016;DHT22;3548;48.402;9.990;2023-04-24T07:55:23;12.20;99.90
7016;DHT22;3548;48.402;9.990;2023-04-24T07:57:49;12.20;99.90
7016;DHT22;3548;48.402;9.990;2023-04-24T08:00:15;12.30;99.90
7016;DHT22;3548;48.402;9.990;2023-04-24T08:02:40;12.40;99.90
7016;DHT22;3548;48.402;9.990;2023-04-24T08:05:06;12.50;99.90
7016;DHT22;3548;48.402;9.990;2023-04-24T08:07:32;12.50;99.90
7016;DHT22;3548;48.402;9.990;2023-04-24T08:09:58;12.40;99.90
7016;DHT22;3548;48.402;9.990;2023-04-24T08:12:24;12.50;99.90
7016;DHT22;3548;48.402;9.990;2023-04-24T08:14:50;12.50;99.90
7016;DHT22;3548;48.402;9.990;2023-04-24T08:17:16;12.60;99.90
7016;DHT22;3548;48.402;9.990;2023-04-24T08:19:42;12.60;99.90
7016;DHT22;3548;48.402;9.990;2023-04-24T08:22:12;12.50;99.90
7016;DHT22;3548;48.402;9.990;2023-04-24T08:24:38;12.40;99.90
7016;DHT22;3548;48.402;9.990;2023-04-24T08:27:04;12.50;99.90
7016;DHT22;3548;48.402;9.990;2023-04-24T08:29:29;12.50;99.90
7016;DHT22;3548;48.402;9.990;2023-04-24T08:31:55;12.40;99.90
7016;DHT22;3548;48.402;9.990;2023-04-24T08:34:21;12.30;99.90
7016;DHT22;3548;48.402;9.990;2023-04-24T08:36:47;12.50;99.90
7016;DHT22;3548;48.402;9.990;2023-04-24T08:39:14;12.80;99.90
7016;DHT22;3548;48.402;9.990;2023-04-24T08:41:41;12.90;99.90
7016;DHT22;3548;48.402;9.990;2023-04-24T08:44:09;13.10;99.90
7016;DHT22;3548;48.402;9.990;2023-04-24T08:46:35;13.30;99.90
7016;DHT22;3548;48.402;9.990;2023-04-24T08:49:02;13.30;99.60
7016;DHT22;3548;48.402;9.990;2023-04-24T08:51:29;13.30;99.80
7016;DHT22;3548;48.402;9.990;2023-04-24T08:53:56;12.70;99.90
7016;DHT22;3548;48.402;9.990;2023-04-24T08:56:22;11.80;99.90
7016;DHT22;3548;48.402;9.990;2023-04-24T08:58:53;11.30;99.90
7016;DHT22;3548;48.402;9.990;2023-04-24T09:01:20;10.90;99.90
7016;DHT22;3548;48.402;9.990;2023-04-24T09:03:48;10.80;99.90
7016;DHT22;3548;48.402;9.990;2023-04-24T09:06:16;10.70;99.90
7016;DHT22;3548;48.402;9.990;2023-04-24T09:08:43;10.70;99.90
7016;DHT22;3548;48.402;9.990;2023-04-24T09:11:11;10.90;99.90
7016;DHT22;3548;48.402;9.990;2023-04-24T09:13:37;11.20;99.90
7016;DHT22;3548;48.402;9.990;2023-04-24T09:16:03;11.20;99.90
7016;DHT22;3548;48.402;9.990;2023-04-24T09:18:28;11.30;99.90
7016;DHT22;3548;48.402;9.990;2023-04-24T09:20:58;11.30;99.90
7016;DHT22;3548;48.402;9.990;2023-04-24T09:23:29;11.30;99.90
7016;DHT22;3548;48.402;9.990;2023-04-24T09:25:56;11.40;99.90
7016;DHT22;3548;48.402;9.990;2023-04-24T09:28:40;11.60;99.90
7016;DHT22;3548;48.402;9.990;2023-04-24T09:31:17;11.80;99.90
7016;DHT22;3548;48.402;9.990;2023-04-24T09:34:04;11.80;99.90
7016;DHT22;3548;48.402;9.990;2023-04-24T09:36:36;11.80;99.90
7016;DHT22;3548;48.402;9.990;2023-04-24T09:39:08;11.90;99.90
7016;DHT22;3548;48.402;9.990;2023-04-24T09:44:24;12.20;99.90
7016;DHT22;3548;48.402;9.990;2023-04-24T09:47:00;12.40;99.70
7016;DHT22;3548;48.402;9.990;2023-04-24T09:49:30;12.40;98.70
7016;DHT22;3548;48.402;9.990;2023-04-24T09:52:07;12.50;99.00
7016;DHT22;3548;48.402;9.990;2023-04-24T09:54:33;12.60;98.40
7016;DHT22;3548;48.402;9.990;2023-04-24T09:56:59;12.70;98.40
7016;DHT22;3548;48.402;9.990;2023-04-24T09:59:27;13.10;98.20
7016;DHT22;3548;48.402;9.990;2023-04-24T10:01:53;13.20;96.90
7016;DHT22;3548;48.402;9.990;2023-04-24T10:04:25;13.30;97.30
7016;DHT22;3548;48.402;9.990;2023-04-24T10:06:53;13.50;95.90
7016;DHT22;3548;48.402;9.990;2023-04-24T10:09:20;13.40;95.50
7016;DHT22;3548;48.402;9.990;2023-04-24T10:11:49;13.50;95.10
7016;DHT22;3548;48.402;9.990;2023-04-24T10:14:25;13.50;95.50
7016;DHT22;3548;48.402;9.990;2023-04-24T10:16:54;13.50;95.30
7016;DHT22;3548;48.402;9.990;2023-04-24T10:19:25;13.40;95.80
7016;DHT22;3548;48.402;9.990;2023-04-24T10:21:51;13.40;94.80
7016;DHT22;3548;48.402;9.990;2023-04-24T10:24:17;13.20;94.20
7016;DHT22;3548;48.402;9.990;2023-04-24T10:26:45;13.30;94.50
7016;DHT22;3548;48.402;9.990;2023-04-24T10:29:12;13.30;94.30
7016;DHT22;3548;48.402;9.990;2023-04-24T10:31:39;13.30;94.30
7016;DHT22;3548;48.402;9.990;2023-04-24T10:34:05;13.40;93.40
7016;DHT22;3548;48.402;9.990;2023-04-24T10:36:33;13.40;94.00
7016;DHT22;3548;48.402;9.990;2023-04-24T10:39:01;13.50;93.10
7016;DHT22;3548;48.402;9.990;2023-04-24T10:41:27;13.70;92.00
7016;DHT22;3548;48.402;9.990;2023-04-24T10:46:34;13.70;89.70
7016;DHT22;3548;48.402;9.990;2023-04-24T10:49:03;13.80;90.60
7016;DHT22;3548;48.402;9.990;2023-04-24T10:51:51;14.00;91.80
7016;DHT22;3548;48.402;9.990;2023-04-24T10:59:48;12.60;93.20
7016;DHT22;3548;48.402;9.990;2023-04-24T11:02:14;12.30;93.90
7016;DHT22;3548;48.402;9.990;2023-04-24T11:04:43;12.00;94.60
7016;DHT22;3548;48.402;9.990;2023-04-24T11:07:09;11.90;95.50
7016;DHT22;3548;48.402;9.990;2023-04-24T11:09:36;11.90;95.90
7016;DHT22;3548;48.402;9.990;2023-04-24T11:12:06;12.20;96.00
7016;DHT22;3548;48.402;9.990;2023-04-24T11:17:34;12.60;94.90
7016;DHT22;3548;48.402;9.990;2023-04-24T11:20:06;12.70;95.20
7016;DHT22;3548;48.402;9.990;2023-04-24T11:22:37;12.80;94.80
7016;DHT22;3548;48.402;9.990;2023-04-24T11:25:03;12.80;93.80
7016;DHT22;3548;48.402;9.990;2023-04-24T11:27:42;12.80;93.40
7016;DHT22;3548;48.402;9.990;2023-04-24T11:30:09;12.90;93.20
7016;DHT22;3548;48.402;9.990;2023-04-24T11:32:37;12.90;92.30
7016;DHT22;3548;48.402;9.990;2023-04-24T11:40:11;13.00;92.80
7016;DHT22;3548;48.402;9.990;2023-04-24T11:42:42;13.00;93.10
7016;DHT22;3548;48.402;9.990;2023-04-24T11:45:15;13.00;92.90
7016;DHT22;3548;48.402;9.990;2023-04-24T11:47:42;12.90;92.60
7016;DHT22;3548;48.402;9.990;2023-04-24T11:50:13;12.80;93.20
7016;DHT22;3548;48.402;9.990;2023-04-24T11:52:40;12.80;93.30
7016;DHT22;3548;48.402;9.990;2023-04-24T11:55:28;12.80;93.50
7016;DHT22;3548;48.402;9.990;2023-04-24T11:57:58;12.80;93.20
7016;DHT22;3548;48.402;9.990;2023-04-24T12:00:27;13.00;92.30
7016;DHT22;3548;48.402;9.990;2023-04-24T12:05:30;13.10;91.20
7016;DHT22;3548;48.402;9.990;2023-04-24T12:07:56;13.10;89.10
7016;DHT22;3548;48.402;9.990;2023-04-24T12:10:23;13.20;87.40
7016;DHT22;3548;48.402;9.990;2023-04-24T12:12:49;13.30;88.50
7016;DHT22;3548;48.402;9.990;2023-04-24T12:15:18;13.50;87.80
7016;DHT22;3548;48.402;9.990;2023-04-24T12:17:44;13.80;89.10
7016;DHT22;3548;48.402;9.990;2023-04-24T12:20:10;13.90;86.60
7016;DHT22;3548;48.402;9.990;2023-04-24T12:22:52;13.90;86.10
7016;DHT22;3548;48.402;9.990;2023-04-24T12:25:23;13.70;83.80
7016;DHT22;3548;48.402;9.990;2023-04-24T12:30:30;13.20;85.30
7016;DHT22;3548;48.402;9.990;2023-04-24T12:33:00;12.90;84.10
7016;DHT22;3548;48.402;9.990;2023-04-24T12:35:28;12.70;85.40
7016;DHT22;3548;48.402;9.990;2023-04-24T12:37:54;12.60;86.10
7016;DHT22;3548;48.402;9.990;2023-04-24T12:40:21;12.60;87.10
7016;DHT22;3548;48.402;9.990;2023-04-24T12:42:50;12.60;87.90
7016;DHT22;3548;48.402;9.990;2023-04-24T12:45:17;12.70;87.90
7016;DHT22;3548;48.402;9.990;2023-04-24T12:47:44;12.80;85.90
7016;DHT22;3548;48.402;9.990;2023-04-24T12:50:11;12.90;87.30
7016;DHT22;3548;48.402;9.990;2023-04-24T12:52:38;12.80;88.10
7016;DHT22;3548;48.402;9.990;2023-04-24T12:55:05;12.90;88.10
7016;DHT22;3548;48.402;9.990;2023-04-24T12:57:33;12.90;88.70
7016;DHT22;3548;48.402;9.990;2023-04-24T13:00:00;12.80;88.20
7016;DHT22;3548;48.402;9.990;2023-04-24T13:02:27;12.80;89.10
7016;DHT22;3548;48.402;9.990;2023-04-24T13:04:54;12.70;90.00
7016;DHT22;3548;48.402;9.990;2023-04-24T13:07:20;12.80;88.90
7016;DHT22;3548;48.402;9.990;2023-04-24T13:09:49;12.60;89.10
7016;DHT22;3548;48.402;9.990;2023-04-24T13:12:15;12.40;88.20
7016;DHT22;3548;48.402;9.990;2023-04-24T13:14:40;12.30;89.00
7016;DHT22;3548;48.402;9.990;2023-04-24T13:17:06;12.20;89.30
7016;DHT22;3548;48.402;9.990;2023-04-24T13:19:36;12.20;90.10
7016;DHT22;3548;48.402;9.990;2023-04-24T13:22:03;12.20;90.60
7016;DHT22;3548;48.402;9.990;2023-04-24T13:24:28;12.20;90.40
7016;DHT22;3548;48.402;9.990;2023-04-24T13:26:54;12.20;90.50
7016;DHT22;3548;48.402;9.990;2023-04-24T13:29:22;12.20;90.50
7016;DHT22;3548;48.402;9.990;2023-04-24T13:31:50;12.20;90.30
7016;DHT22;3548;48.402;9.990;2023-04-24T13:34:16;12.20;90.20
7016;DHT22;3548;48.402;9.990;2023-04-24T13:36:42;12.10;90.30
7016;DHT22;3548;48.402;9.990;2023-04-24T13:39:07;12.20;90.00
7016;DHT22;3548;48.402;9.990;2023-04-24T13:41:33;12.10;90.40
7016;DHT22;3548;48.402;9.990;2023-04-24T13:43:59;12.10;89.70
7016;DHT22;3548;48.402;9.990;2023-04-24T13:46:25;12.00;90.10
7016;DHT22;3548;48.402;9.990;2023-04-24T13:48:50;12.00;90.20
7016;DHT22;3548;48.402;9.990;2023-04-24T13:51:16;12.00;90.30
7016;DHT22;3548;48.402;9.990;2023-04-24T13:53:42;12.10;90.00
7016;DHT22;3548;48.402;9.990;2023-04-24T13:56:07;12.00;89.60
7016;DHT22;3548;48.402;9.990;2023-04-24T13:58:34;11.90;90.10
7016;DHT22;3548;48.402;9.990;2023-04-24T14:01:01;11.80;90.20
7016;DHT22;3548;48.402;9.990;2023-04-24T14:03:27;11.90;90.40
7016;DHT22;3548;48.402;9.990;2023-04-24T14:05:52;12.00;90.30
7016;DHT22;3548;48.402;9.990;2023-04-24T14:08:18;12.10;90.00
7016;DHT22;3548;48.402;9.990;2023-04-24T14:10:43;12.20;90.20
7016;DHT22;3548;48.402;9.990;2023-04-24T14:13:09;12.30;90.10
7016;DHT22;3548;48.402;9.990;2023-04-24T14:15:37;12.50;89.90
7016;DHT22;3548;48.402;9.990;2023-04-24T14:18:03;12.80;88.80
7016;DHT22;3548;48.402;9.990;2023-04-24T14:20:29;13.00;88.60
7016;DHT22;3548;48.402;9.990;2023-04-24T14:22:54;13.30;87.30
7016;DHT22;3548;48.402;9.990;2023-04-24T14:25:20;13.40;87.40
7016;DHT22;3548;48.402;9.990;2023-04-24T14:27:45;13.50;85.20
7016;DHT22;3548;48.402;9.990;2023-04-24T14:30:12;13.50;84.00
7016;DHT22;3548;48.402;9.990;2023-04-24T14:32:39;13.40;81.20
7016;DHT22;3548;48.402;9.990;2023-04-24T14:35:05;13.30;81.10
7016;DHT22;3548;48.402;9.990;2023-04-24T14:37:32;13.30;81.90
7016;DHT22;3548;48.402;9.990;2023-04-24T14:39:57;13.10;80.00
7016;DHT22;3548;48.402;9.990;2023-04-24T14:42:23;13.10;80.70
7016;DHT22;3548;48.402;9.990;2023-04-24T14:44:48;13.10;79.80
7016;DHT22;3548;48.402;9.990;2023-04-24T14:47:14;12.90;86.20
7016;DHT22;3548;48.402;9.990;2023-04-24T14:49:39;12.80;80.60
7016;DHT22;3548;48.402;9.990;2023-04-24T14:52:05;12.70;81.30
7016;DHT22;3548;48.402;9.990;2023-04-24T14:54:30;12.60;81.90
7016;DHT22;3548;48.402;9.990;2023-04-24T14:56:56;12.60;82.00
7016;DHT22;3548;48.402;9.990;2023-04-24T14:59:27;12.60;81.60
7016;DHT22;3548;48.402;9.990;2023-04-24T15:01:53;12.70;82.20
7016;DHT22;3548;48.402;9.990;2023-04-24T15:04:26;12.70;81.60
7016;DHT22;3548;48.402;9.990;2023-04-24T15:06:52;12.80;81.50
7016;DHT22;3548;48.402;9.990;2023-04-24T15:09:19;12.90;81.10
7016;DHT22;3548;48.402;9.990;2023-04-24T15:11:46;12.80;80.70
7016;DHT22;3548;48.402;9.990;2023-04-24T15:14:11;12.90;80.50
7016;DHT22;3548;48.402;9.990;2023-04-24T15:16:37;12.90;80.60
7016;DHT22;3548;48.402;9.990;2023-04-24T15:19:02;12.90;80.90
7016;DHT22;3548;48.402;9.990;2023-04-24T15:21:28;12.90;79.20
7016;DHT22;3548;48.402;9.990;2023-04-24T15:23:54;12.90;79.10
7016;DHT22;3548;48.402;9.990;2023-04-24T15:26:19;12.90;78.90
7016;DHT22;3548;48.402;9.990;2023-04-24T15:28:45;12.80;77.30
7016;DHT22;3548;48.402;9.990;2023-04-24T15:31:12;12.70;77.20
7016;DHT22;3548;48.402;9.990;2023-04-24T15:33:37;12.70;79.30
7016;DHT22;3548;48.402;9.990;2023-04-24T15:36:03;12.80;79.60
7016;DHT22;3548;48.402;9.990;2023-04-24T15:38:29;12.80;79.40
7016;DHT22;3548;48.402;9.990;2023-04-24T15:40:54;12.70;79.20
7016;DHT22;3548;48.402;9.990;2023-04-24T15:43:20;12.60;78.90
7016;DHT22;3548;48.402;9.990;2023-04-24T15:45:46;12.50;78.10
7016;DHT22;3548;48.402;9.990;2023-04-24T15:48:11;12.50;78.50
7016;DHT22;3548;48.402;9.990;2023-04-24T15:50:37;12.40;78.10
7016;DHT22;3548;48.402;9.990;2023-04-24T15:53:02;12.30;78.60
7016;DHT22;3548;48.402;9.990;2023-04-24T15:55:28;12.30;79.70
7016;DHT22;3548;48.402;9.990;2023-04-24T15:57:54;12.20;80.10
7016;DHT22;3548;48.402;9.990;2023-04-24T16:00:19;12.20;80.40
7016;DHT22;3548;48.402;9.990;2023-04-24T16:02:45;12.20;80.30
7016;DHT22;3548;48.402;9.990;2023-04-24T16:05:11;12.20;81.00
7016;DHT22;3548;48.402;9.990;2023-04-24T16:07:37;12.20;81.70
7016;DHT22;3548;48.402;9.990;2023-04-24T16:10:04;12.20;81.80
7016;DHT22;3548;48.402;9.990;2023-04-24T16:12:29;12.20;80.90
7016;DHT22;3548;48.402;9.990;2023-04-24T16:14:55;12.20;81.50
7016;DHT22;3548;48.402;9.990;2023-04-24T16:17:21;12.20;82.40
7016;DHT22;3548;48.402;9.990;2023-04-24T16:19:46;12.20;82.20
7016;DHT22;3548;48.402;9.990;2023-04-24T16:22:12;12.20;82.50